Terminal Aerodrome Forecast
Issued by NWS

Home | Current Version | Previous Version | Text Only | Print | Product List | Glossary On
Versions: 1 2 3 4 5 6 7 8 9 10 11 12
000
FTUS42 TJSJ 262300
TAFJSJ
TAF
TJSJ 262330Z 2700/2724 09012KT P6SM VCSH SCT030 SCT050
     FM270330 10011KT P6SM FEW030
     FM270600 10009KT P6SM VCSH FEW025 SCT040
     FM271430 09016KT P6SM SCT035=

USA.gov is the U.S. government's official web portal to all federal, state and local government web resources and services.